createdAt,value
2022-08-20T00:00:23.509Z,10.50
2022-08-20T00:03:41.669Z,10.40
2022-08-20T00:06:48.815Z,10.80
2022-08-20T00:09:51.801Z,11.20
2022-08-20T00:12:55.690Z,9.80
2022-08-20T00:15:59.608Z,11.10
2022-08-20T00:19:07.313Z,10.10
2022-08-20T00:22:10.219Z,11.50
2022-08-20T00:25:14.008Z,10.60
2022-08-20T00:28:17.446Z,10.00
2022-08-20T00:31:22.950Z,10.50
2022-08-20T00:34:25.964Z,11.10
2022-08-20T00:37:28.901Z,11.20
2022-08-20T00:40:45.701Z,12.00
2022-08-20T00:44:05.001Z,10.40
2022-08-20T00:47:09.300Z,10.20
2022-08-20T00:50:15.531Z,11.20
2022-08-20T00:53:23.590Z,11.00
2022-08-20T00:56:26.746Z,11.10
2022-08-20T00:59:31.490Z,11.30
2022-08-20T01:02:35.270Z,12.30
2022-08-20T01:05:40.151Z,11.90
2022-08-20T01:08:43.208Z,12.40
2022-08-20T01:11:46.485Z,12.00
2022-08-20T01:14:49.702Z,13.80
2022-08-20T01:17:57.962Z,13.80
2022-08-20T01:21:06.025Z,12.90
2022-08-20T01:24:16.670Z,13.30
2022-08-20T01:27:19.883Z,11.80
2022-08-20T01:30:26.351Z,14.60
2022-08-20T01:33:29.460Z,14.20
2022-08-20T01:36:43.034Z,14.20
2022-08-20T01:39:48.539Z,13.80
2022-08-20T01:42:58.980Z,14.50
2022-08-20T01:46:04.651Z,14.20
2022-08-20T01:49:15.667Z,13.50
2022-08-20T01:52:36.636Z,14.30
2022-08-20T01:55:39.653Z,14.80
2022-08-20T01:58:49.745Z,13.40
2022-08-20T02:02:00.234Z,14.90
2022-08-20T02:05:04.658Z,13.50
2022-08-20T02:08:07.664Z,14.40
2022-08-20T02:11:12.958Z,13.50
2022-08-20T02:14:16.792Z,14.80
2022-08-20T02:17:22.928Z,14.60
2022-08-20T02:20:30.360Z,14.10
2022-08-20T02:23:35.819Z,14.20
2022-08-20T02:26:39.745Z,15.30
2022-08-20T02:29:42.746Z,14.00
2022-08-20T02:32:45.766Z,14.40
2022-08-20T02:35:49.906Z,14.90
2022-08-20T02:38:52.963Z,13.60
2022-08-20T02:41:56.072Z,14.60
2022-08-20T02:44:59.016Z,13.20
2022-08-20T02:48:01.948Z,14.10
2022-08-20T02:51:06.929Z,13.70
2022-08-20T02:54:10.262Z,13.60
2022-08-20T02:57:15.117Z,13.60
2022-08-20T03:00:20.929Z,13.20
2022-08-20T03:03:24.545Z,13.90
2022-08-20T03:06:28.087Z,14.40
2022-08-20T03:09:31.019Z,14.50
2022-08-20T03:12:34.339Z,14.60
2022-08-20T03:15:37.500Z,14.10
2022-08-20T03:18:44.432Z,14.60
2022-08-20T03:21:47.741Z,15.00
2022-08-20T03:24:50.661Z,15.10
2022-08-20T03:27:57.500Z,14.00
2022-08-20T03:31:01.413Z,13.50
2022-08-20T03:34:04.518Z,14.30
2022-08-20T03:37:07.510Z,13.70
2022-08-20T03:40:15.583Z,14.60
2022-08-20T03:43:18.838Z,13.50
2022-08-20T03:46:23.076Z,14.10
2022-08-20T03:49:26.824Z,13.40
2022-08-20T03:52:29.842Z,13.30
2022-08-20T03:55:32.975Z,12.80
2022-08-20T03:58:36.625Z,13.80
2022-08-20T04:01:46.364Z,13.30
2022-08-20T04:04:49.663Z,13.20
2022-08-20T04:07:52.751Z,13.10
2022-08-20T04:10:57.819Z,12.20
2022-08-20T04:14:00.672Z,12.30
2022-08-20T04:17:10.676Z,11.90
2022-08-20T04:20:19.229Z,13.10
2022-08-20T04:23:22.568Z,12.90
2022-08-20T04:26:25.944Z,12.60
2022-08-20T04:29:32.490Z,12.00
2022-08-20T04:32:37.005Z,12.20
2022-08-20T04:35:41.259Z,12.80
2022-08-20T04:38:47.807Z,12.90
2022-08-20T04:41:53.155Z,13.10
2022-08-20T04:44:56.013Z,12.30
2022-08-20T04:48:05.741Z,13.00
2022-08-20T04:51:09.732Z,13.80
2022-08-20T04:54:14.348Z,13.90
2022-08-20T04:57:17.295Z,13.00
2022-08-20T05:00:20.292Z,12.60
2022-08-20T05:03:24.880Z,13.30
2022-08-20T05:06:31.146Z,13.30
2022-08-20T05:09:35.078Z,12.70
2022-08-20T05:12:56.829Z,12.80
2022-08-20T05:16:02.066Z,13.10
2022-08-20T05:19:07.018Z,13.20
2022-08-20T05:22:09.958Z,12.90
2022-08-20T05:25:13.038Z,12.90
2022-08-20T05:28:23.168Z,12.80
2022-08-20T05:31:31.375Z,13.50
2022-08-20T05:34:37.070Z,12.60
2022-08-20T05:37:43.761Z,12.20
2022-08-20T05:40:48.022Z,12.00
2022-08-20T05:43:51.537Z,12.10
2022-08-20T05:46:54.690Z,11.80
2022-08-20T05:49:57.953Z,11.30
2022-08-20T05:53:02.013Z,10.50
2022-08-20T05:56:05.114Z,10.90
2022-08-20T05:59:09.654Z,11.00
2022-08-20T06:02:30.985Z,10.90
2022-08-20T06:05:34.715Z,11.00
2022-08-20T06:08:37.915Z,11.50
2022-08-20T06:11:40.802Z,11.60
2022-08-20T06:14:47.373Z,11.50
2022-08-20T06:17:55.105Z,11.50
2022-08-20T06:21:01.515Z,12.20
2022-08-20T06:24:04.907Z,11.30
2022-08-20T06:27:07.941Z,12.00
2022-08-20T06:30:13.717Z,11.20
2022-08-20T06:33:16.692Z,12.00
2022-08-20T06:36:20.082Z,12.40
2022-08-20T06:39:24.552Z,12.30
2022-08-20T06:42:27.501Z,13.70
2022-08-20T06:45:32.923Z,13.60
2022-08-20T06:48:36.053Z,14.30
2022-08-20T06:51:41.337Z,15.10
2022-08-20T06:54:45.912Z,13.30
2022-08-20T06:57:59.956Z,16.10
2022-08-20T07:01:09.488Z,16.00
2022-08-20T07:04:13.748Z,16.50
2022-08-20T07:07:20.622Z,16.20
2022-08-20T07:10:25.278Z,16.40
2022-08-20T07:13:29.308Z,16.40
2022-08-20T07:16:32.392Z,15.10
2022-08-20T07:19:38.443Z,13.80
2022-08-20T07:22:43.589Z,13.30
2022-08-20T07:25:46.595Z,12.30
2022-08-20T07:28:49.574Z,11.10
2022-08-20T07:32:10.854Z,12.40
2022-08-20T07:35:18.109Z,11.40
2022-08-20T07:38:25.326Z,11.40
2022-08-20T07:41:28.551Z,10.70
2022-08-20T07:44:31.497Z,10.50
2022-08-20T07:47:35.895Z,10.50
2022-08-20T07:50:43.011Z,11.00
2022-08-20T07:53:47.732Z,10.70
2022-08-20T07:56:50.655Z,10.10
2022-08-20T07:59:53.584Z,10.50
2022-08-20T08:02:56.566Z,10.70
2022-08-20T08:06:00.442Z,9.30
2022-08-20T08:09:10.071Z,9.60
2022-08-20T08:12:15.063Z,9.00
2022-08-20T08:15:23.994Z,8.60
2022-08-20T08:18:31.989Z,8.10
2022-08-20T08:21:35.042Z,7.80
2022-08-20T08:24:39.480Z,9.20
2022-08-20T08:27:43.112Z,8.50
2022-08-20T08:30:48.212Z,8.90
2022-08-20T08:33:51.466Z,8.60
2022-08-20T08:36:54.384Z,7.70
2022-08-20T08:39:59.470Z,8.20
2022-08-20T08:43:04.395Z,7.50
2022-08-20T08:46:11.342Z,7.40
2022-08-20T08:49:18.402Z,7.60
2022-08-20T08:52:26.273Z,7.50
2022-08-20T08:55:31.210Z,7.20
2022-08-20T08:58:37.154Z,6.00
2022-08-20T09:01:54.324Z,5.40
2022-08-20T09:05:02.267Z,5.80
2022-08-20T09:08:14.966Z,5.90
2022-08-20T09:11:22.517Z,6.00
2022-08-20T09:14:25.548Z,6.50
2022-08-20T09:17:28.565Z,6.00
2022-08-20T09:20:31.546Z,6.70
2022-08-20T09:23:34.670Z,6.80
2022-08-20T09:26:39.283Z,6.80
2022-08-20T09:29:42.682Z,6.70
2022-08-20T09:32:46.631Z,6.90
2022-08-20T09:35:49.655Z,7.60
2022-08-20T09:38:52.574Z,7.50
2022-08-20T09:41:55.442Z,7.70
2022-08-20T09:45:06.326Z,6.90
2022-08-20T09:48:14.072Z,7.30
2022-08-20T09:51:17.484Z,7.20
2022-08-20T09:54:23.025Z,7.70
2022-08-20T09:57:26.606Z,7.50
2022-08-20T10:00:29.790Z,7.30
2022-08-20T10:03:32.751Z,7.60
2022-08-20T10:06:40.769Z,7.60
2022-08-20T10:09:43.917Z,7.40
2022-08-20T10:12:48.129Z,7.80
2022-08-20T10:16:13.441Z,7.60
2022-08-20T10:19:16.583Z,6.90
2022-08-20T10:22:19.508Z,6.40
2022-08-20T10:25:23.107Z,6.70
2022-08-20T10:28:26.026Z,6.40
2022-08-20T10:31:28.992Z,6.90
2022-08-20T10:34:32.083Z,7.10
2022-08-20T10:37:36.478Z,7.30
2022-08-20T10:40:39.592Z,7.10
2022-08-20T10:43:42.614Z,7.00
2022-08-20T10:46:45.866Z,6.60
2022-08-20T10:49:53.850Z,6.80
2022-08-20T10:52:56.865Z,6.80
2022-08-20T10:56:00.016Z,6.60
2022-08-20T10:59:03.540Z,6.10
2022-08-20T11:02:06.575Z,6.50
2022-08-20T11:05:09.955Z,7.10
2022-08-20T11:08:13.296Z,5.90
2022-08-20T11:11:16.208Z,6.10
2022-08-20T11:14:19.184Z,6.40
2022-08-20T11:17:28.854Z,6.70
2022-08-20T11:20:32.220Z,5.90
2022-08-20T11:23:35.406Z,6.40
2022-08-20T11:26:38.424Z,6.30
2022-08-20T11:29:41.295Z,5.20
2022-08-20T11:32:46.543Z,5.70
2022-08-20T11:35:50.275Z,5.20
2022-08-20T11:38:53.714Z,5.70
2022-08-20T11:41:56.782Z,5.20
2022-08-20T11:44:59.722Z,5.50
2022-08-20T11:48:02.788Z,5.80
2022-08-20T11:51:05.931Z,5.30
2022-08-20T11:54:08.892Z,5.00
2022-08-20T11:57:23.382Z,4.50
2022-08-20T12:00:32.199Z,4.40
2022-08-20T12:03:37.327Z,4.50
2022-08-20T12:06:40.293Z,5.20
2022-08-20T12:09:51.170Z,4.90
2022-08-20T12:12:55.335Z,4.80
2022-08-20T12:15:58.922Z,5.70
2022-08-20T12:19:01.878Z,5.50
2022-08-20T12:22:21.341Z,5.60
2022-08-20T12:25:27.980Z,5.00
2022-08-20T12:28:31.428Z,5.80
2022-08-20T12:31:34.457Z,6.30
2022-08-20T12:34:39.076Z,5.50
2022-08-20T12:37:43.185Z,5.70
2022-08-20T12:40:46.638Z,6.00
2022-08-20T12:43:49.519Z,5.80
2022-08-20T12:46:52.399Z,5.90
2022-08-20T12:50:05.554Z,6.00
2022-08-20T12:53:09.316Z,6.40
2022-08-20T12:56:12.158Z,6.50
2022-08-20T12:59:15.377Z,6.90
2022-08-20T13:02:18.854Z,7.00
2022-08-20T13:05:23.288Z,6.30
2022-08-20T13:08:26.266Z,7.00
2022-08-20T13:11:29.719Z,6.10
2022-08-20T13:14:32.676Z,7.00
2022-08-20T13:17:38.952Z,7.70
2022-08-20T13:20:42.603Z,6.90
2022-08-20T13:23:45.598Z,8.00
2022-08-20T13:26:49.979Z,7.50
2022-08-20T13:29:58.544Z,7.30
2022-08-20T13:33:02.259Z,7.00
2022-08-20T13:36:05.857Z,7.20
2022-08-20T13:39:08.922Z,6.90
2022-08-20T13:42:13.457Z,6.90
2022-08-20T13:45:16.425Z,7.50
2022-08-20T13:48:19.367Z,7.40
2022-08-20T13:51:22.295Z,7.30
2022-08-20T13:54:30.246Z,7.80
2022-08-20T13:57:34.237Z,7.50
2022-08-20T14:00:37.261Z,7.80
2022-08-20T14:03:40.289Z,7.70
2022-08-20T14:06:45.745Z,8.10
2022-08-20T14:09:55.425Z,9.50
2022-08-20T14:12:59.447Z,9.90
2022-08-20T14:16:02.355Z,9.70
2022-08-20T14:19:05.966Z,10.60
2022-08-20T14:22:08.990Z,9.20
2022-08-20T14:25:14.266Z,7.50
2022-08-20T14:28:20.435Z,7.40
2022-08-20T14:31:23.300Z,7.10
2022-08-20T14:34:26.246Z,7.40
2022-08-20T14:37:34.836Z,7.70
2022-08-20T14:40:37.835Z,7.00
2022-08-20T14:43:40.788Z,6.70
2022-08-20T14:46:43.726Z,7.10
2022-08-20T14:49:48.179Z,8.20
2022-08-20T14:52:51.624Z,7.60
2022-08-20T14:55:54.555Z,7.40
2022-08-20T14:58:57.395Z,8.10
2022-08-20T15:02:00.801Z,8.30
2022-08-20T15:05:06.951Z,8.50
2022-08-20T15:08:11.037Z,8.40
2022-08-20T15:11:14.435Z,7.80
2022-08-20T15:14:18.535Z,8.80
2022-08-20T15:17:27.082Z,8.00
2022-08-20T15:20:32.421Z,8.20
2022-08-20T15:23:35.334Z,7.90
2022-08-20T15:26:38.377Z,7.80
2022-08-20T15:29:41.972Z,7.00
2022-08-20T15:32:45.226Z,7.10
2022-08-20T15:35:48.147Z,6.90
2022-08-20T15:38:51.214Z,6.70
2022-08-20T15:41:54.096Z,6.50
2022-08-20T15:44:57.583Z,6.30
2022-08-20T15:48:19.281Z,6.40
2022-08-20T15:51:33.197Z,6.60
2022-08-20T15:54:36.681Z,6.80
2022-08-20T15:57:53.085Z,6.80
2022-08-20T16:01:24.536Z,7.40
2022-08-20T16:04:56.968Z,7.50
2022-08-20T16:08:18.112Z,7.00
2022-08-20T16:11:33.315Z,7.60
2022-08-20T16:14:45.258Z,7.60
2022-08-20T16:17:58.268Z,7.40
2022-08-20T16:21:06.013Z,8.00
2022-08-20T16:24:12.866Z,7.10
2022-08-20T16:27:33.080Z,7.30
2022-08-20T16:30:39.079Z,7.00
2022-08-20T16:33:51.102Z,7.80
2022-08-20T16:37:04.279Z,7.40
2022-08-20T16:40:30.052Z,7.80
2022-08-20T16:43:40.136Z,8.00
2022-08-20T16:46:52.118Z,7.30
2022-08-20T16:50:20.477Z,7.90
2022-08-20T16:53:25.680Z,7.50
2022-08-20T16:56:37.934Z,7.40
2022-08-20T17:00:05.615Z,8.40
2022-08-20T17:03:31.734Z,7.90
2022-08-20T17:06:47.084Z,8.30
2022-08-20T17:09:50.345Z,8.20
2022-08-20T17:13:00.056Z,8.60
2022-08-20T17:16:17.151Z,7.80
2022-08-20T17:19:30.615Z,9.10
2022-08-20T17:22:42.661Z,8.10
2022-08-20T17:25:56.463Z,9.00
2022-08-20T17:29:03.040Z,8.40
2022-08-20T17:32:16.762Z,8.70
2022-08-20T17:35:28.993Z,8.60
2022-08-20T17:38:41.341Z,9.00
2022-08-20T17:41:49.122Z,9.10
2022-08-20T17:45:04.411Z,9.10
2022-08-20T17:48:13.733Z,8.70
2022-08-20T17:51:19.852Z,8.70
2022-08-20T17:54:41.521Z,8.60
2022-08-20T17:57:48.065Z,8.90
2022-08-20T18:00:51.117Z,8.80
2022-08-20T18:03:54.627Z,9.60
2022-08-20T18:07:17.137Z,9.20
2022-08-20T18:10:26.861Z,9.10
2022-08-20T18:13:44.855Z,9.20
2022-08-20T18:17:30.087Z,8.70
2022-08-20T18:20:54.478Z,9.30
2022-08-20T18:24:14.942Z,9.70
2022-08-20T18:27:22.508Z,9.30
2022-08-20T18:30:26.864Z,8.40
2022-08-20T18:33:40.882Z,8.70
2022-08-20T18:37:00.545Z,10.20
2022-08-20T18:40:14.496Z,11.10
2022-08-20T18:43:27.914Z,12.30
2022-08-20T18:46:31.465Z,13.10
2022-08-20T18:49:37.806Z,11.30
2022-08-20T18:52:46.830Z,12.90
2022-08-20T18:56:11.094Z,16.10
2022-08-20T18:59:18.981Z,16.70
2022-08-20T19:02:32.475Z,15.80
2022-08-20T19:06:06.044Z,13.40
2022-08-20T19:09:38.447Z,13.70
2022-08-20T19:15:55.265Z,12.70
2022-08-20T19:18:58.558Z,13.40
2022-08-20T19:22:02.662Z,12.10
2022-08-20T19:25:06.639Z,10.50
2022-08-20T19:28:40.018Z,10.80
2022-08-20T19:31:43.459Z,10.10
2022-08-20T19:35:17.113Z,10.20
2022-08-20T19:38:21.502Z,8.90
2022-08-20T19:41:31.277Z,9.30
2022-08-20T19:44:42.212Z,8.60
2022-08-20T19:47:57.008Z,9.00
2022-08-20T19:51:20.477Z,9.20
2022-08-20T19:54:27.734Z,8.90
2022-08-20T19:57:30.850Z,9.30
2022-08-20T20:00:47.748Z,9.40
2022-08-20T20:03:57.840Z,9.20
2022-08-20T20:07:00.893Z,8.60
2022-08-20T20:10:07.605Z,9.00
2022-08-20T20:13:18.164Z,9.00
2022-08-20T20:16:21.858Z,9.30
2022-08-20T20:19:27.562Z,10.20
2022-08-20T20:22:53.819Z,10.30
2022-08-20T20:26:01.791Z,8.80
2022-08-20T20:29:13.851Z,9.20
2022-08-20T20:32:21.836Z,8.90
2022-08-20T20:35:32.416Z,10.30
2022-08-20T20:38:39.082Z,9.60
2022-08-20T20:41:52.419Z,10.10
2022-08-20T20:44:58.555Z,9.60
2022-08-20T20:48:20.486Z,10.30
2022-08-20T20:54:34.668Z,9.70
2022-08-20T20:57:40.622Z,11.00
2022-08-20T21:00:44.118Z,10.50
2022-08-20T21:03:47.313Z,10.60
2022-08-20T21:06:52.462Z,10.70
2022-08-20T21:09:56.540Z,9.30
2022-08-20T21:12:59.975Z,8.60
2022-08-20T21:16:03.248Z,8.80
2022-08-20T21:19:07.418Z,8.50
2022-08-20T21:22:10.348Z,7.30
2022-08-20T21:25:13.499Z,8.00
2022-08-20T21:28:17.112Z,7.30
2022-08-20T21:31:20.009Z,7.70
2022-08-20T21:34:22.886Z,7.40
2022-08-20T21:37:25.828Z,7.30
2022-08-20T21:40:28.744Z,8.20
2022-08-20T21:43:32.754Z,8.50
2022-08-20T21:46:35.995Z,8.50
2022-08-20T21:49:38.941Z,8.50
2022-08-20T21:52:42.288Z,7.90
2022-08-20T21:55:57.103Z,8.50
2022-08-20T21:59:01.183Z,8.30
2022-08-20T22:02:04.573Z,8.40
2022-08-20T22:05:07.859Z,9.00
2022-08-20T22:08:11.117Z,8.50
2022-08-20T22:11:14.488Z,8.40
2022-08-20T22:14:18.409Z,8.50
2022-08-20T22:17:21.709Z,8.50
2022-08-20T22:20:25.027Z,8.00
2022-08-20T22:23:28.530Z,8.80
2022-08-20T22:26:34.847Z,10.80
2022-08-20T22:29:38.247Z,9.40
2022-08-20T22:32:51.981Z,8.00
2022-08-20T22:35:57.600Z,9.40
2022-08-20T22:39:00.537Z,9.40
2022-08-20T22:42:03.804Z,9.30
2022-08-20T22:45:12.321Z,8.80
2022-08-20T22:48:19.613Z,9.60
2022-08-20T22:51:34.927Z,9.00
2022-08-20T22:54:38.517Z,9.80
2022-08-20T22:57:47.829Z,9.60
2022-08-20T23:00:51.378Z,9.00
2022-08-20T23:04:02.969Z,9.80
2022-08-20T23:07:10.015Z,10.30
2022-08-20T23:10:15.920Z,10.70
2022-08-20T23:13:18.847Z,10.80
2022-08-20T23:16:21.736Z,10.90
2022-08-20T23:19:24.631Z,11.60
2022-08-20T23:22:27.562Z,11.50
2022-08-20T23:25:30.794Z,11.30
2022-08-20T23:28:33.834Z,11.70
2022-08-20T23:31:36.697Z,11.90
2022-08-20T23:34:40.139Z,11.70
2022-08-20T23:37:54.961Z,11.80
2022-08-20T23:40:57.838Z,11.50
2022-08-20T23:44:00.914Z,11.60
2022-08-20T23:47:04.320Z,11.60
2022-08-20T23:50:11.362Z,11.80
2022-08-20T23:53:14.343Z,11.70
2022-08-20T23:56:17.471Z,11.70
2022-08-20T23:59:20.409Z,11.50
